createdAt,value
2024-01-14T00:00:33.844Z,32.30
2024-01-14T00:05:34.895Z,33.30
2024-01-14T00:10:36.868Z,30.20
2024-01-14T00:15:36.931Z,32.40
2024-01-14T00:20:36.834Z,31.00
2024-01-14T00:25:35.951Z,27.30
2024-01-14T00:30:36.977Z,28.80
2024-01-14T00:35:38.689Z,32.40
2024-01-14T00:40:38.620Z,31.60
2024-01-14T00:45:39.578Z,33.10
2024-01-14T00:50:40.580Z,38.80
2024-01-14T00:55:42.485Z,29.20
2024-01-14T01:00:41.695Z,31.80
2024-01-14T01:05:42.733Z,39.00
2024-01-14T01:10:43.689Z,37.00
2024-01-14T01:15:48.631Z,30.60
2024-01-14T01:20:45.919Z,27.70
2024-01-14T01:25:46.918Z,30.90
2024-01-14T01:30:48.002Z,34.70
2024-01-14T01:35:49.969Z,32.60
2024-01-14T01:40:48.938Z,31.00
2024-01-14T01:45:49.914Z,34.70
2024-01-14T01:50:50.878Z,34.20
2024-01-14T01:55:51.819Z,50.50
2024-01-14T02:00:52.892Z,44.10
2024-01-14T02:05:53.953Z,59.90
2024-01-14T02:10:54.863Z,37.10
2024-01-14T02:15:55.888Z,28.90
2024-01-14T02:20:56.875Z,27.50
2024-01-14T02:25:57.878Z,28.00
2024-01-14T02:30:58.884Z,27.10
2024-01-14T02:35:59.854Z,36.20
2024-01-14T02:41:01.722Z,30.40
2024-01-14T02:46:00.689Z,28.40
2024-01-14T02:51:02.704Z,33.10
2024-01-14T02:56:01.660Z,32.00
2024-01-14T03:01:03.686Z,30.00
2024-01-14T03:06:02.713Z,31.80
2024-01-14T03:11:02.180Z,34.60
2024-01-14T03:16:03.183Z,43.90
2024-01-14T03:21:04.151Z,40.60
2024-01-14T03:26:05.168Z,36.40
2024-01-14T03:31:06.222Z,41.40
2024-01-14T03:36:07.231Z,41.70
2024-01-14T03:41:09.117Z,60.30
2024-01-14T03:46:08.077Z,69.40
2024-01-14T03:51:09.193Z,52.50
2024-01-14T03:56:10.168Z,38.00
2024-01-14T04:01:11.186Z,38.30
2024-01-14T04:06:16.196Z,46.50
2024-01-14T04:11:15.206Z,42.30
2024-01-14T04:16:14.205Z,47.50
2024-01-14T04:21:16.109Z,34.00
2024-01-14T04:26:15.023Z,47.00
2024-01-14T04:31:16.019Z,35.70
2024-01-14T04:36:17.059Z,41.10
2024-01-14T04:41:18.001Z,39.10
2024-01-14T04:46:18.916Z,43.70
2024-01-14T04:51:20.415Z,40.80
2024-01-14T04:56:19.362Z,33.30
2024-01-14T05:01:20.376Z,52.90
2024-01-14T05:06:20.454Z,40.80
2024-01-14T05:11:22.416Z,35.00
2024-01-14T05:16:21.393Z,34.20
2024-01-14T05:21:22.410Z,40.00
2024-01-14T05:26:23.350Z,46.10
2024-01-14T05:31:24.368Z,44.70
2024-01-14T05:36:25.358Z,33.50
2024-01-14T05:41:26.286Z,40.70
2024-01-14T05:46:28.168Z,58.60
2024-01-14T05:51:27.178Z,46.60
2024-01-14T05:56:29.149Z,40.50
2024-01-14T06:01:28.184Z,37.70
2024-01-14T06:06:29.239Z,45.70
2024-01-14T06:11:30.273Z,35.50
2024-01-14T06:16:31.314Z,36.40
2024-01-14T06:21:32.406Z,35.30
2024-01-14T06:26:33.401Z,36.60
2024-01-14T06:31:34.507Z,34.00
2024-01-14T06:36:35.592Z,44.70
2024-01-14T06:41:36.749Z,61.20
2024-01-14T06:46:37.777Z,57.30
2024-01-14T06:51:39.055Z,39.10
2024-01-14T06:56:40.055Z,34.70
2024-01-14T07:01:41.094Z,46.80
2024-01-14T07:06:42.311Z,62.70
2024-01-14T07:11:43.394Z,36.50
2024-01-14T07:16:45.283Z,30.50
2024-01-14T07:21:44.234Z,35.20
2024-01-14T07:26:45.234Z,27.30
2024-01-14T07:31:45.339Z,29.50
2024-01-14T07:36:46.367Z,36.30
2024-01-14T07:41:47.309Z,37.40
2024-01-14T07:46:48.299Z,33.10
2024-01-14T07:51:49.307Z,57.20
2024-01-14T07:56:50.263Z,50.20
2024-01-14T08:01:51.311Z,46.30
2024-01-14T08:06:52.291Z,35.80
2024-01-14T08:11:54.310Z,30.50
2024-01-14T08:16:53.294Z,28.70
2024-01-14T08:21:54.290Z,37.70
2024-01-14T08:26:55.331Z,32.20
2024-01-14T08:31:56.341Z,39.40
2024-01-14T08:36:57.414Z,26.80
2024-01-14T08:41:59.411Z,43.70
2024-01-14T08:46:58.446Z,39.90
2024-01-14T08:51:59.447Z,30.80
2024-01-14T08:56:59.503Z,39.80
2024-01-14T09:02:00.433Z,25.20
2024-01-14T09:07:03.421Z,35.30
2024-01-14T09:12:02.443Z,29.00
2024-01-14T09:17:04.308Z,28.90
2024-01-14T09:22:03.349Z,27.50
2024-01-14T09:27:05.481Z,25.10
2024-01-14T09:32:04.514Z,25.60
2024-01-14T09:37:05.595Z,22.10
2024-01-14T09:42:06.667Z,24.30
2024-01-14T09:47:07.612Z,22.00
2024-01-14T09:52:09.543Z,22.00
2024-01-14T09:57:08.651Z,23.60
2024-01-14T10:02:10.585Z,24.70
2024-01-14T10:07:09.728Z,22.60
2024-01-14T10:12:10.828Z,23.80
2024-01-14T10:17:11.824Z,35.90
2024-01-14T10:22:17.178Z,26.10
2024-01-14T10:27:12.801Z,21.50
2024-01-14T10:32:13.718Z,23.60
2024-01-14T10:37:14.710Z,22.90
2024-01-14T10:42:15.740Z,23.80
2024-01-14T10:47:16.915Z,22.10
2024-01-14T10:52:17.852Z,22.50
2024-01-14T10:57:19.833Z,26.30
2024-01-14T11:02:19.055Z,24.10
2024-01-14T11:07:20.155Z,18.60
2024-01-14T11:12:24.886Z,17.80
2024-01-14T11:17:20.837Z,17.60
2024-01-14T11:22:31.998Z,23.20
2024-01-14T11:27:25.378Z,22.30
2024-01-14T11:32:23.042Z,21.20
2024-01-14T11:37:23.987Z,19.80
2024-01-14T11:42:25.015Z,20.50
2024-01-14T11:47:25.997Z,20.90
2024-01-14T11:52:26.996Z,21.00
2024-01-14T11:57:27.924Z,20.20
2024-01-14T12:02:28.873Z,19.90
2024-01-14T12:07:30.937Z,18.90
2024-01-14T12:12:29.875Z,21.10
2024-01-14T12:17:29.968Z,23.00
2024-01-14T12:22:30.926Z,20.90
2024-01-14T12:27:31.244Z,21.00
2024-01-14T12:32:32.295Z,19.60
2024-01-14T12:37:33.294Z,20.70
2024-01-14T12:42:35.524Z,18.30
2024-01-14T12:47:35.508Z,17.60
2024-01-14T12:52:36.471Z,16.30
2024-01-14T12:57:37.511Z,17.20
2024-01-14T13:02:38.801Z,17.10
2024-01-14T13:07:39.835Z,16.90
2024-01-14T13:12:41.101Z,19.00
2024-01-14T13:17:42.101Z,18.10
2024-01-14T13:22:44.097Z,19.70
2024-01-14T13:27:43.081Z,19.00
2024-01-14T13:32:44.165Z,18.50
2024-01-14T13:37:45.143Z,18.70
2024-01-14T13:42:46.194Z,18.90
2024-01-14T13:47:47.256Z,19.20
2024-01-14T13:52:48.147Z,18.20
2024-01-14T13:57:49.366Z,19.90
2024-01-14T14:02:50.298Z,20.10
2024-01-14T14:07:52.236Z,20.20
2024-01-14T14:12:51.362Z,19.80
2024-01-14T14:17:54.088Z,19.40
2024-01-14T14:22:52.992Z,18.50
2024-01-14T14:27:53.982Z,18.20
2024-01-14T14:32:55.415Z,18.30
2024-01-14T14:37:56.398Z,19.50
2024-01-14T14:42:56.354Z,18.20
2024-01-14T14:47:57.603Z,19.30
2024-01-14T14:52:58.632Z,18.80
2024-01-14T14:57:59.599Z,19.50
2024-01-14T15:03:00.683Z,19.60
2024-01-14T15:08:01.814Z,20.50
2024-01-14T15:13:02.717Z,23.10
2024-01-14T15:18:05.090Z,20.20
2024-01-14T15:23:04.188Z,20.00
2024-01-14T15:28:05.144Z,19.60
2024-01-14T15:33:06.597Z,26.50
2024-01-14T15:38:05.839Z,21.80
2024-01-14T15:43:07.790Z,21.10
2024-01-14T15:48:07.216Z,22.50
2024-01-14T15:53:08.245Z,23.20
2024-01-14T15:58:09.506Z,28.10
2024-01-14T16:03:09.520Z,24.50
2024-01-14T16:08:10.480Z,25.80
2024-01-14T16:13:11.505Z,24.80
2024-01-14T16:18:14.471Z,32.40
2024-01-14T16:23:13.387Z,25.90
2024-01-14T16:28:14.399Z,23.70
2024-01-14T16:33:14.492Z,26.20
2024-01-14T16:38:15.503Z,28.20
2024-01-14T16:43:17.618Z,28.30
2024-01-14T16:48:16.734Z,28.30
2024-01-14T16:53:16.668Z,29.00
2024-01-14T16:58:17.672Z,26.90
2024-01-14T17:03:18.718Z,32.00
2024-01-14T17:08:19.760Z,32.60
2024-01-14T17:13:20.808Z,40.20
2024-01-14T17:18:21.860Z,27.90
2024-01-14T17:23:22.883Z,27.80
2024-01-14T17:28:27.816Z,28.50
2024-01-14T17:33:24.817Z,33.50
2024-01-14T17:38:26.796Z,30.80
2024-01-14T17:43:26.659Z,34.80
2024-01-14T17:48:26.837Z,34.00
2024-01-14T17:53:26.111Z,32.40
2024-01-14T17:58:28.035Z,29.70
2024-01-14T18:03:27.232Z,27.30
2024-01-14T18:08:28.256Z,27.20
2024-01-14T18:13:29.268Z,28.30
2024-01-14T18:18:32.336Z,28.10
2024-01-14T18:23:31.422Z,27.00
2024-01-14T18:28:33.481Z,28.60
2024-01-14T18:33:32.582Z,32.50
2024-01-14T18:38:33.644Z,26.70
2024-01-14T18:43:34.707Z,26.60
2024-01-14T18:48:36.734Z,29.60
2024-01-14T18:53:36.792Z,32.20
2024-01-14T18:58:36.881Z,27.60
2024-01-14T19:03:36.110Z,26.40
2024-01-14T19:08:37.335Z,28.70
2024-01-14T19:13:38.416Z,28.80
2024-01-14T19:18:39.696Z,29.50
2024-01-14T19:23:40.915Z,28.10
2024-01-14T19:28:41.910Z,30.60
2024-01-14T19:33:43.052Z,28.30
2024-01-14T19:38:45.190Z,29.90
2024-01-14T19:43:44.249Z,31.10
2024-01-14T19:48:45.639Z,27.30
2024-01-14T19:53:47.746Z,29.30
2024-01-14T19:58:47.972Z,30.30
2024-01-14T20:03:47.231Z,28.60
2024-01-14T20:08:48.342Z,27.00
2024-01-14T20:13:49.511Z,27.10
2024-01-14T20:18:50.898Z,27.50
2024-01-14T20:23:52.010Z,28.20
2024-01-14T20:28:54.138Z,29.50
2024-01-14T20:33:54.456Z,29.70
2024-01-14T20:38:53.759Z,29.00
2024-01-14T20:43:55.121Z,31.20
2024-01-14T20:48:55.250Z,28.60
2024-01-14T20:53:57.179Z,29.50
2024-01-14T20:58:57.123Z,26.90
2024-01-14T21:03:56.247Z,27.40
2024-01-14T21:08:56.359Z,28.10
2024-01-14T21:13:57.497Z,26.30
2024-01-14T21:18:59.502Z,29.10
2024-01-14T21:23:59.398Z,28.30
2024-01-14T21:28:59.401Z,25.80
2024-01-14T21:33:58.608Z,26.70
2024-01-14T21:39:00.596Z,25.80
2024-01-14T21:43:59.605Z,26.90
2024-01-14T21:49:00.664Z,25.60
2024-01-14T21:54:02.644Z,27.50
2024-01-14T21:59:01.631Z,27.70
2024-01-14T22:04:02.749Z,28.10
2024-01-14T22:09:04.721Z,27.50
2024-01-14T22:14:03.679Z,27.70
2024-01-14T22:19:04.867Z,25.90
2024-01-14T22:24:06.004Z,26.50
2024-01-14T22:29:06.932Z,27.60
2024-01-14T22:34:08.068Z,26.40
2024-01-14T22:39:09.969Z,28.20
2024-01-14T22:44:08.983Z,26.20
2024-01-14T22:49:10.099Z,25.70
2024-01-14T22:54:10.131Z,26.60
2024-01-14T22:59:11.019Z,27.70
2024-01-14T23:04:12.088Z,28.10
2024-01-14T23:09:13.357Z,22.10
2024-01-14T23:14:18.490Z,20.70
2024-01-14T23:19:16.714Z,19.90
2024-01-14T23:24:15.668Z,20.30
2024-01-14T23:29:16.611Z,21.40
2024-01-14T23:34:17.645Z,21.40
2024-01-14T23:39:18.559Z,21.00
2024-01-14T23:44:19.511Z,21.50
2024-01-14T23:49:20.559Z,21.50
2024-01-14T23:54:21.585Z,22.50
2024-01-14T23:59:22.597Z,23.10
